createdAt,value
2018-12-23T00:00:53.904Z,55.57
2018-12-23T00:03:22.283Z,51.23
2018-12-23T00:05:50.555Z,53.37
2018-12-23T00:08:19.003Z,49.00
2018-12-23T00:10:47.614Z,53.73
2018-12-23T00:13:15.768Z,60.73
2018-12-23T00:15:44.091Z,61.80
2018-12-23T00:18:12.191Z,56.13
2018-12-23T00:20:40.366Z,40.90
2018-12-23T00:23:09.484Z,55.30
2018-12-23T00:25:38.010Z,46.87
2018-12-23T00:28:06.519Z,43.60
2018-12-23T00:30:34.855Z,49.57
2018-12-23T00:33:03.008Z,46.83
2018-12-23T00:35:31.469Z,43.40
2018-12-23T00:37:59.641Z,44.93
2018-12-23T00:40:28.313Z,46.10
2018-12-23T00:42:56.415Z,48.67
2018-12-23T00:45:24.895Z,42.47
2018-12-23T00:47:53.160Z,48.50
2018-12-23T00:50:21.307Z,49.90
2018-12-23T00:52:49.540Z,46.37
2018-12-23T00:55:17.700Z,58.23
2018-12-23T00:57:46.411Z,49.63
2018-12-23T01:00:14.702Z,45.03
2018-12-23T01:02:43.002Z,46.37
2018-12-23T01:05:11.179Z,55.67
2018-12-23T01:07:39.300Z,50.10
2018-12-23T01:10:07.531Z,47.70
2018-12-23T01:12:36.807Z,48.33
2018-12-23T01:15:05.151Z,51.93
2018-12-23T01:17:33.332Z,59.47
2018-12-23T01:20:01.641Z,50.10
2018-12-23T01:22:29.775Z,60.03
2018-12-23T01:24:58.018Z,54.17
2018-12-23T01:27:26.191Z,55.23
2018-12-23T01:29:54.262Z,59.33
2018-12-23T01:32:22.518Z,59.33
2018-12-23T01:34:50.612Z,60.97
2018-12-23T01:37:18.850Z,60.07
2018-12-23T01:39:47.029Z,59.33
2018-12-23T01:42:16.297Z,55.87
2018-12-23T01:44:44.435Z,58.13
2018-12-23T01:47:12.691Z,52.33
2018-12-23T01:49:40.860Z,53.33
2018-12-23T01:52:09.946Z,58.93
2018-12-23T01:54:38.083Z,57.80
2018-12-23T01:57:07.312Z,48.00
2018-12-23T01:59:35.503Z,60.77
2018-12-23T02:02:03.907Z,53.03
2018-12-23T02:04:32.086Z,49.63
2018-12-23T02:07:00.319Z,50.97
2018-12-23T02:09:28.508Z,51.57
2018-12-23T02:11:56.760Z,58.07
2018-12-23T02:14:24.891Z,61.57
2018-12-23T02:16:53.103Z,60.17
2018-12-23T02:19:21.239Z,61.03
2018-12-23T02:21:49.371Z,51.60
2018-12-23T02:24:17.505Z,54.80
2018-12-23T02:26:45.615Z,61.67
2018-12-23T02:29:13.674Z,53.87
2018-12-23T02:31:41.807Z,49.90
2018-12-23T02:34:09.879Z,56.00
2018-12-23T02:36:37.943Z,51.07
2018-12-23T02:39:07.949Z,52.90
2018-12-23T02:41:36.191Z,45.93
2018-12-23T02:44:04.410Z,45.17
2018-12-23T02:46:32.650Z,50.80
2018-12-23T02:49:00.878Z,44.30
2018-12-23T02:51:29.071Z,44.73
2018-12-23T02:53:57.203Z,43.77
2018-12-23T02:56:25.383Z,48.53
2018-12-23T02:58:53.619Z,47.87
2018-12-23T03:01:21.955Z,50.67
2018-12-23T03:03:50.051Z,40.30
2018-12-23T03:06:18.263Z,47.67
2018-12-23T03:08:46.474Z,46.40
2018-12-23T03:11:14.671Z,48.53
2018-12-23T03:13:42.811Z,45.40
2018-12-23T03:16:10.947Z,48.13
2018-12-23T03:18:39.074Z,44.20
2018-12-23T03:21:07.252Z,42.23
2018-12-23T03:23:35.507Z,46.37
2018-12-23T03:26:03.818Z,49.90
2018-12-23T03:28:33.295Z,46.37
2018-12-23T03:31:01.493Z,49.90
2018-12-23T03:33:29.648Z,49.13
2018-12-23T03:35:57.827Z,54.63
2018-12-23T03:38:26.039Z,43.87
2018-12-23T03:40:54.543Z,45.73
2018-12-23T03:43:22.787Z,52.83
2018-12-23T03:45:51.190Z,54.10
2018-12-23T03:48:19.335Z,57.80
2018-12-23T03:50:52.487Z,48.23
2018-12-23T03:53:20.899Z,56.53
2018-12-23T03:55:49.182Z,44.50
2018-12-23T03:58:17.411Z,42.83
2018-12-23T04:00:46.233Z,47.23
2018-12-23T04:03:14.563Z,58.63
2018-12-23T04:05:42.686Z,43.23
2018-12-23T04:08:11.088Z,38.57
2018-12-23T04:10:39.151Z,45.73
2018-12-23T04:13:07.379Z,32.30
2018-12-23T04:15:36.639Z,31.13
2018-12-23T04:18:04.727Z,26.23
2018-12-23T04:20:33.116Z,31.90
2018-12-23T04:23:01.663Z,23.27
2018-12-23T04:25:30.339Z,24.00
2018-12-23T04:27:58.623Z,24.23
2018-12-23T04:30:28.002Z,20.63
2018-12-23T04:32:56.259Z,29.43
2018-12-23T04:35:24.441Z,23.97
2018-12-23T04:37:52.686Z,26.23
2018-12-23T04:40:20.948Z,29.63
2018-12-23T04:42:54.219Z,33.43
2018-12-23T04:45:22.490Z,33.33
2018-12-23T04:47:50.629Z,36.93
2018-12-23T04:50:18.698Z,37.47
2018-12-23T04:52:47.107Z,34.90
2018-12-23T04:55:15.263Z,39.30
2018-12-23T04:57:43.527Z,35.67
2018-12-23T05:00:11.772Z,34.77
2018-12-23T05:02:40.098Z,35.63
2018-12-23T05:05:08.375Z,35.33
2018-12-23T05:07:36.612Z,35.73
2018-12-23T05:10:05.035Z,34.53
2018-12-23T05:12:33.345Z,37.23
2018-12-23T05:15:01.970Z,28.70
2018-12-23T05:17:30.207Z,39.57
2018-12-23T05:19:58.456Z,32.07
2018-12-23T05:22:26.647Z,34.53
2018-12-23T05:24:54.740Z,36.97
2018-12-23T05:27:22.890Z,37.80
2018-12-23T05:29:51.031Z,37.73
2018-12-23T05:32:19.095Z,33.23
2018-12-23T05:34:47.261Z,40.57
2018-12-23T05:37:15.440Z,31.00
2018-12-23T05:39:43.515Z,32.90
2018-12-23T05:42:11.711Z,31.50
2018-12-23T05:44:39.848Z,30.07
2018-12-23T05:47:08.012Z,33.00
2018-12-23T05:49:36.178Z,27.43
2018-12-23T05:52:04.321Z,31.00
2018-12-23T05:54:32.551Z,25.87
2018-12-23T05:57:00.736Z,27.43
2018-12-23T05:59:28.990Z,28.40
2018-12-23T06:01:57.152Z,30.57
2018-12-23T06:04:25.347Z,23.07
2018-12-23T06:07:00.738Z,23.50
2018-12-23T06:09:23.711Z,18.63
2018-12-23T06:11:51.812Z,16.87
2018-12-23T06:14:19.911Z,18.57
2018-12-23T06:16:48.069Z,15.83
2018-12-23T06:19:16.111Z,15.90
2018-12-23T06:21:44.214Z,15.40
2018-12-23T06:24:12.284Z,16.13
2018-12-23T06:26:40.352Z,19.60
2018-12-23T06:29:08.523Z,15.37
2018-12-23T06:31:36.691Z,13.43
2018-12-23T06:34:04.830Z,17.30
2018-12-23T06:36:33.208Z,20.67
2018-12-23T06:39:01.284Z,20.87
2018-12-23T06:41:29.376Z,22.47
2018-12-23T06:43:57.475Z,19.43
2018-12-23T06:46:25.536Z,16.17
2018-12-23T06:48:53.787Z,21.63
2018-12-23T06:51:21.867Z,20.80
2018-12-23T06:53:49.932Z,27.93
2018-12-23T06:56:18.011Z,25.77
2018-12-23T06:58:46.182Z,29.53
2018-12-23T07:01:14.417Z,23.60
2018-12-23T07:03:42.722Z,26.43
2018-12-23T07:06:10.957Z,24.83
2018-12-23T07:08:39.099Z,21.80
2018-12-23T07:11:07.344Z,25.63
2018-12-23T07:13:35.479Z,20.97
2018-12-23T07:16:03.759Z,21.00
2018-12-23T07:18:31.866Z,24.70
2018-12-23T07:21:00.020Z,19.57
2018-12-23T07:23:28.223Z,20.07
2018-12-23T07:25:56.296Z,18.90
2018-12-23T07:28:24.511Z,18.63
2018-12-23T07:30:52.775Z,14.63
2018-12-23T07:33:21.013Z,17.67
2018-12-23T07:35:49.315Z,22.40
2018-12-23T07:38:17.364Z,26.13
2018-12-23T07:40:45.669Z,23.97
2018-12-23T07:43:13.955Z,24.57
2018-12-23T07:45:42.095Z,24.57
2018-12-23T07:48:10.172Z,18.13
2018-12-23T07:50:38.383Z,25.83
2018-12-23T07:53:06.519Z,26.97
2018-12-23T07:55:34.786Z,27.93
2018-12-23T07:58:03.729Z,30.77
2018-12-23T08:00:31.885Z,28.67
2018-12-23T08:03:00.083Z,24.27
2018-12-23T08:05:28.433Z,28.80
2018-12-23T08:07:56.681Z,27.10
2018-12-23T08:10:24.947Z,33.87
2018-12-23T08:12:53.059Z,31.07
2018-12-23T08:15:21.355Z,35.83
2018-12-23T08:17:49.447Z,28.53
2018-12-23T08:20:18.264Z,32.80
2018-12-23T08:22:46.366Z,30.87
2018-12-23T08:25:14.620Z,30.30
2018-12-23T08:27:43.087Z,30.33
2018-12-23T08:30:11.285Z,34.20
2018-12-23T08:32:39.583Z,41.00
2018-12-23T08:35:07.915Z,33.33
2018-12-23T08:37:44.441Z,36.03
2018-12-23T08:40:06.598Z,36.93
2018-12-23T08:42:35.066Z,37.30
2018-12-23T08:45:05.574Z,31.80
2018-12-23T08:47:35.283Z,39.80
2018-12-23T08:50:04.031Z,31.07
2018-12-23T08:52:32.311Z,37.90
2018-12-23T08:55:01.359Z,33.97
2018-12-23T08:57:29.588Z,27.27
2018-12-23T08:59:57.828Z,32.40
2018-12-23T09:02:26.684Z,31.70
2018-12-23T09:04:55.827Z,24.03
2018-12-23T09:07:25.842Z,41.93
2018-12-23T09:09:54.643Z,28.87
2018-12-23T09:12:25.326Z,23.30
2018-12-23T09:14:54.615Z,35.47
2018-12-23T09:17:24.747Z,29.37
2018-12-23T09:19:53.072Z,27.00
2018-12-23T09:22:21.227Z,36.47
2018-12-23T09:24:49.363Z,35.83
2018-12-23T09:27:17.580Z,32.90
2018-12-23T09:29:46.416Z,24.87
2018-12-23T09:32:14.719Z,30.77
2018-12-23T09:34:42.917Z,25.13
2018-12-23T09:37:11.222Z,34.27
2018-12-23T09:39:39.431Z,29.07
2018-12-23T09:42:07.591Z,24.97
2018-12-23T09:44:36.127Z,25.83
2018-12-23T09:47:05.099Z,33.77
2018-12-23T09:49:33.250Z,30.27
2018-12-23T09:52:01.551Z,25.63
2018-12-23T09:54:30.024Z,24.27
2018-12-23T09:56:58.720Z,27.13
2018-12-23T09:59:27.376Z,23.40
2018-12-23T10:01:55.835Z,18.33
2018-12-23T10:04:24.043Z,25.60
2018-12-23T10:06:52.677Z,26.60
2018-12-23T10:09:21.051Z,20.63
2018-12-23T10:11:50.018Z,20.97
2018-12-23T10:14:18.487Z,21.33
2018-12-23T10:16:46.747Z,20.80
2018-12-23T10:19:14.947Z,20.97
2018-12-23T10:21:43.499Z,17.87
2018-12-23T10:25:36.276Z,14.70
2018-12-23T10:28:04.737Z,19.57
2018-12-23T10:30:32.935Z,25.37
2018-12-23T10:33:01.023Z,22.43
2018-12-23T10:35:29.307Z,19.90
2018-12-23T10:37:57.652Z,19.47
2018-12-23T10:40:25.817Z,22.70
2018-12-23T10:42:54.883Z,21.17
2018-12-23T10:45:23.773Z,24.10
2018-12-23T10:47:52.487Z,19.33
2018-12-23T10:50:20.580Z,18.70
2018-12-23T10:52:48.696Z,27.63
2018-12-23T10:55:17.128Z,24.73
2018-12-23T10:59:14.663Z,26.77
2018-12-23T11:01:42.875Z,18.03
2018-12-23T11:04:11.539Z,23.13
2018-12-23T11:06:40.004Z,27.80
2018-12-23T11:09:08.496Z,26.67
2018-12-23T11:11:36.589Z,21.63
2018-12-23T11:14:05.040Z,25.10
2018-12-23T11:16:33.211Z,23.43
2018-12-23T11:19:01.624Z,20.07
2018-12-23T11:21:30.961Z,23.20
2018-12-23T11:23:59.132Z,20.50
2018-12-23T11:26:27.199Z,21.70
2018-12-23T11:28:55.572Z,21.67
2018-12-23T11:31:23.952Z,25.37
2018-12-23T11:33:52.255Z,23.50
2018-12-23T11:36:20.482Z,25.93
2018-12-23T11:38:48.804Z,20.33
2018-12-23T11:41:17.009Z,23.10
2018-12-23T11:43:45.314Z,23.37
2018-12-23T11:46:14.015Z,22.53
2018-12-23T11:48:42.276Z,20.30
2018-12-23T11:51:10.730Z,16.37
2018-12-23T11:53:39.319Z,19.13
2018-12-23T11:56:07.759Z,19.33
2018-12-23T11:58:35.831Z,17.37
2018-12-23T12:01:04.132Z,14.67
2018-12-23T12:03:32.645Z,20.67
2018-12-23T12:06:00.728Z,16.03
2018-12-23T12:08:28.887Z,16.03
2018-12-23T12:10:57.075Z,17.57
2018-12-23T12:13:25.282Z,20.13
2018-12-23T12:15:53.867Z,21.50
2018-12-23T12:18:24.911Z,22.03
2018-12-23T12:20:53.427Z,18.63
2018-12-23T12:23:21.612Z,13.00
2018-12-23T12:25:50.109Z,16.70
2018-12-23T12:28:18.223Z,17.40
2018-12-23T12:30:46.791Z,16.90
2018-12-23T12:33:16.075Z,19.20
2018-12-23T12:35:44.291Z,21.53
2018-12-23T12:38:13.819Z,16.23
2018-12-23T12:40:42.711Z,14.00
2018-12-23T12:43:11.060Z,15.13
2018-12-23T12:45:40.191Z,17.10
2018-12-23T12:48:09.975Z,15.17
2018-12-23T12:50:39.165Z,17.00
2018-12-23T12:53:08.127Z,14.43
2018-12-23T12:55:36.571Z,17.80
2018-12-23T12:58:04.928Z,14.03
2018-12-23T13:00:33.491Z,17.87
2018-12-23T13:03:01.635Z,17.87
2018-12-23T13:05:30.180Z,19.20
2018-12-23T13:07:59.141Z,14.87
2018-12-23T13:10:27.989Z,16.97
2018-12-23T13:12:56.995Z,14.20
2018-12-23T13:15:25.115Z,17.50
2018-12-23T13:17:53.758Z,24.33
2018-12-23T13:20:22.796Z,19.30
2018-12-23T13:22:51.264Z,20.47
2018-12-23T13:25:20.259Z,17.47
2018-12-23T13:27:48.907Z,9.60
2018-12-23T13:30:17.053Z,12.37
2018-12-23T13:32:45.321Z,14.90
2018-12-23T13:35:13.547Z,20.53
2018-12-23T13:37:41.689Z,15.53
2018-12-23T13:40:18.103Z,16.23
2018-12-23T13:44:02.112Z,14.83
2018-12-23T13:46:46.274Z,20.13
2018-12-23T13:49:26.403Z,12.67
2018-12-23T13:52:39.464Z,19.07
2018-12-23T13:55:20.730Z,17.43
2018-12-23T13:58:00.944Z,13.73
2018-12-23T14:00:40.277Z,13.17
2018-12-23T14:03:18.608Z,18.37
2018-12-23T14:08:05.000Z,18.90
2018-12-23T14:10:44.632Z,13.37
2018-12-23T14:13:13.943Z,16.73
2018-12-23T14:15:42.767Z,14.43
2018-12-23T14:18:10.989Z,9.50
2018-12-23T14:20:40.152Z,15.57
2018-12-23T14:23:08.567Z,13.20
2018-12-23T14:25:36.933Z,13.70
2018-12-23T14:28:05.648Z,17.17
2018-12-23T14:30:33.968Z,13.17
2018-12-23T14:33:02.881Z,16.17
2018-12-23T14:35:32.232Z,16.93
2018-12-23T14:38:00.959Z,9.77
2018-12-23T14:40:29.361Z,11.20
2018-12-23T14:42:57.683Z,17.73
2018-12-23T14:45:27.235Z,12.30
2018-12-23T14:47:55.666Z,16.60
2018-12-23T14:50:25.079Z,17.23
2018-12-23T14:52:55.376Z,18.03
2018-12-23T14:55:23.659Z,16.10
2018-12-23T14:57:53.014Z,17.17
2018-12-23T15:00:21.684Z,15.00
2018-12-23T15:02:50.007Z,16.57
2018-12-23T15:05:19.327Z,16.10
2018-12-23T15:07:47.716Z,15.53
2018-12-23T15:10:15.946Z,18.17
2018-12-23T15:12:44.090Z,18.13
2018-12-23T15:15:13.943Z,16.00
2018-12-23T15:17:42.335Z,18.43
2018-12-23T15:20:10.971Z,19.87
2018-12-23T15:22:39.283Z,20.77
2018-12-23T15:25:07.581Z,21.40
2018-12-23T15:27:35.755Z,17.47
2018-12-23T15:30:03.975Z,15.27
2018-12-23T15:32:32.271Z,14.47
2018-12-23T15:35:00.428Z,18.97
2018-12-23T15:37:28.536Z,14.13
2018-12-23T15:39:57.091Z,20.50
2018-12-23T15:42:25.367Z,17.93
2018-12-23T15:44:53.522Z,18.07
2018-12-23T15:47:22.132Z,14.80
2018-12-23T15:49:50.355Z,20.10
2018-12-23T15:52:18.449Z,21.10
2018-12-23T15:54:47.443Z,18.30
2018-12-23T15:57:16.075Z,20.47
2018-12-23T15:59:44.425Z,18.87
2018-12-23T16:02:12.970Z,15.27
2018-12-23T16:04:42.089Z,13.87
2018-12-23T16:07:10.412Z,12.00
2018-12-23T16:09:38.668Z,15.80
2018-12-23T16:12:09.527Z,15.37
2018-12-23T16:14:37.952Z,15.80
2018-12-23T16:17:06.864Z,17.80
2018-12-23T16:19:35.728Z,15.43
2018-12-23T16:22:04.727Z,25.87
2018-12-23T16:24:33.203Z,21.33
2018-12-23T16:27:03.032Z,17.93
2018-12-23T16:29:31.251Z,14.93
2018-12-23T16:31:59.688Z,13.73
2018-12-23T16:34:28.488Z,19.00
2018-12-23T16:36:56.789Z,15.80
2018-12-23T16:39:25.104Z,13.33
2018-12-23T16:41:54.127Z,16.63
2018-12-23T16:44:22.392Z,19.90
2018-12-23T16:46:50.528Z,12.47
2018-12-23T16:49:18.607Z,11.40
2018-12-23T16:51:47.083Z,14.97
2018-12-23T16:54:15.487Z,14.03
2018-12-23T16:56:43.599Z,19.73
2018-12-23T16:59:12.020Z,14.77
2018-12-23T17:01:40.891Z,13.67
2018-12-23T17:04:08.978Z,12.97
2018-12-23T17:06:37.299Z,11.93
2018-12-23T17:09:07.603Z,9.50
2018-12-23T17:11:36.404Z,15.30
2018-12-23T17:14:05.523Z,12.47
2018-12-23T17:16:33.749Z,19.03
2018-12-23T17:19:02.498Z,13.20
2018-12-23T17:21:31.364Z,9.87
2018-12-23T17:24:00.131Z,15.03
2018-12-23T17:26:28.983Z,16.57
2018-12-23T17:30:26.321Z,16.27
2018-12-23T17:32:56.191Z,18.20
2018-12-23T17:35:25.235Z,11.00
2018-12-23T17:37:53.615Z,15.10
2018-12-23T17:40:22.767Z,18.63
2018-12-23T17:42:51.886Z,18.67
2018-12-23T17:45:20.095Z,18.67
2018-12-23T17:47:48.412Z,11.93
2018-12-23T17:50:16.757Z,13.87
2018-12-23T17:52:45.827Z,15.80
2018-12-23T17:55:14.031Z,18.00
2018-12-23T17:57:42.406Z,19.20
2018-12-23T18:00:11.924Z,22.93
2018-12-23T18:02:40.822Z,16.70
2018-12-23T18:05:09.431Z,19.43
2018-12-23T18:07:41.972Z,17.40
2018-12-23T18:10:10.271Z,20.67
2018-12-23T18:12:38.926Z,17.13
2018-12-23T18:15:07.713Z,16.20
2018-12-23T18:17:36.579Z,14.50
2018-12-23T18:20:06.152Z,16.23
2018-12-23T18:22:35.608Z,15.20
2018-12-23T18:25:04.719Z,14.83
2018-12-23T18:27:33.664Z,14.93
2018-12-23T18:30:02.905Z,10.27
2018-12-23T18:32:31.708Z,14.70
2018-12-23T18:34:59.905Z,16.17
2018-12-23T18:37:28.045Z,13.77
2018-12-23T18:39:56.188Z,14.93
2018-12-23T18:42:24.931Z,15.13
2018-12-23T18:44:54.109Z,16.07
2018-12-23T18:47:23.440Z,18.77
2018-12-23T18:49:52.444Z,12.37
2018-12-23T18:52:20.785Z,15.53
2018-12-23T18:54:49.547Z,16.47
2018-12-23T18:57:19.795Z,14.80
2018-12-23T18:59:49.118Z,16.83
2018-12-23T19:02:25.151Z,16.33
2018-12-23T19:04:53.291Z,11.33
2018-12-23T19:07:21.563Z,14.57
2018-12-23T19:10:02.382Z,15.03
2018-12-23T19:12:40.725Z,14.90
2018-12-23T19:15:23.984Z,14.27
2018-12-23T19:18:05.891Z,14.43
2018-12-23T19:20:48.323Z,12.57
